createdAt,value
2022-12-03T00:00:36.447Z,18.67
2022-12-03T00:03:39.044Z,18.45
2022-12-03T00:06:43.146Z,17.65
2022-12-03T00:09:46.028Z,18.33
2022-12-03T00:12:49.842Z,19.10
2022-12-03T00:15:52.368Z,17.20
2022-12-03T00:18:55.102Z,20.02
2022-12-03T00:21:57.562Z,20.83
2022-12-03T00:25:00.158Z,21.27
2022-12-03T00:28:04.179Z,20.15
2022-12-03T00:31:07.297Z,19.87
2022-12-03T00:34:09.863Z,18.60
2022-12-03T00:37:12.304Z,20.00
2022-12-03T00:40:14.988Z,18.27
2022-12-03T00:43:18.757Z,19.35
2022-12-03T00:46:21.854Z,18.50
2022-12-03T00:49:24.380Z,21.13
2022-12-03T00:52:26.875Z,22.58
2022-12-03T00:55:29.298Z,20.48
2022-12-03T00:58:33.083Z,19.13
2022-12-03T01:01:35.581Z,19.60
2022-12-03T01:04:38.276Z,18.27
2022-12-03T01:07:40.804Z,17.45
2022-12-03T01:10:43.289Z,17.90
2022-12-03T01:13:47.104Z,17.85
2022-12-03T01:16:49.653Z,18.70
2022-12-03T01:19:52.652Z,18.77
2022-12-03T01:22:55.030Z,19.27
2022-12-03T01:25:57.388Z,19.10
2022-12-03T01:29:01.206Z,18.85
2022-12-03T01:32:19.486Z,19.23
2022-12-03T01:35:22.097Z,19.67
2022-12-03T01:38:24.579Z,18.60
2022-12-03T01:41:27.768Z,19.17
2022-12-03T01:44:34.787Z,19.50
2022-12-03T01:47:38.322Z,18.27
2022-12-03T01:50:42.635Z,18.85
2022-12-03T01:53:46.031Z,17.98
2022-12-03T01:56:49.172Z,18.35
2022-12-03T01:59:54.175Z,19.35
2022-12-03T02:02:59.529Z,19.23
2022-12-03T02:06:02.096Z,20.05
2022-12-03T02:09:08.448Z,19.95
2022-12-03T02:12:11.400Z,19.17
2022-12-03T02:15:15.315Z,20.67
2022-12-03T02:18:18.232Z,19.90
2022-12-03T02:21:29.274Z,18.50
2022-12-03T02:24:37.319Z,20.30
2022-12-03T02:27:41.665Z,18.60
2022-12-03T02:30:44.196Z,20.63
2022-12-03T02:33:46.748Z,18.07
2022-12-03T02:36:49.190Z,19.83
2022-12-03T02:39:55.023Z,18.42
2022-12-03T02:43:01.235Z,17.75
2022-12-03T02:46:05.038Z,17.13
2022-12-03T02:49:07.847Z,17.67
2022-12-03T02:52:10.986Z,18.25
2022-12-03T02:55:15.396Z,19.00
2022-12-03T02:58:20.878Z,18.35
2022-12-03T03:01:23.365Z,19.10
2022-12-03T03:04:25.965Z,18.40
2022-12-03T03:07:28.771Z,18.20
2022-12-03T03:10:33.986Z,19.90
2022-12-03T03:13:38.988Z,18.15
2022-12-03T03:16:41.663Z,17.67
2022-12-03T03:19:44.374Z,17.57
2022-12-03T03:22:46.794Z,17.45
2022-12-03T03:25:54.635Z,18.02
2022-12-03T03:29:02.048Z,18.30
2022-12-03T03:32:05.224Z,17.48
2022-12-03T03:35:10.809Z,18.53
2022-12-03T03:38:13.988Z,18.42
2022-12-03T03:41:17.243Z,17.02
2022-12-03T03:44:21.139Z,16.55
2022-12-03T03:47:24.084Z,17.27
2022-12-03T03:50:28.266Z,16.07
2022-12-03T03:53:30.997Z,16.17
2022-12-03T03:56:34.573Z,16.45
2022-12-03T03:59:38.435Z,15.95
2022-12-03T04:02:41.580Z,16.67
2022-12-03T04:05:44.088Z,16.33
2022-12-03T04:08:47.809Z,17.67
2022-12-03T04:12:08.912Z,18.15
2022-12-03T04:15:12.711Z,18.98
2022-12-03T04:18:33.503Z,18.42
2022-12-03T04:21:54.806Z,17.87
2022-12-03T04:25:17.221Z,20.52
2022-12-03T04:28:38.402Z,20.08
2022-12-03T04:32:00.703Z,19.35
2022-12-03T04:35:22.367Z,19.40
2022-12-03T04:38:24.900Z,20.10
2022-12-03T04:41:27.351Z,21.65
2022-12-03T04:44:38.898Z,22.33
2022-12-03T04:47:42.812Z,19.33
2022-12-03T04:50:45.310Z,19.70
2022-12-03T04:53:47.877Z,19.60
2022-12-03T04:56:50.311Z,20.40
2022-12-03T04:59:54.154Z,19.27
2022-12-03T05:02:57.944Z,18.58
2022-12-03T05:06:00.372Z,18.38
2022-12-03T05:09:03.077Z,17.33
2022-12-03T05:12:05.982Z,18.50
2022-12-03T05:15:09.127Z,17.23
2022-12-03T05:18:13.011Z,19.98
2022-12-03T05:21:15.593Z,19.23
2022-12-03T05:24:18.040Z,22.90
2022-12-03T05:27:23.906Z,18.65
2022-12-03T05:30:27.033Z,23.02
2022-12-03T05:33:30.919Z,23.02
2022-12-03T05:36:33.385Z,19.60
2022-12-03T05:39:35.791Z,19.13
2022-12-03T05:42:56.711Z,24.10
2022-12-03T05:45:59.205Z,22.52
2022-12-03T05:49:03.167Z,24.30
2022-12-03T05:52:06.004Z,19.67
2022-12-03T05:55:09.154Z,17.20
2022-12-03T05:58:11.988Z,23.17
2022-12-03T06:01:14.400Z,27.45
2022-12-03T06:04:18.140Z,25.88
2022-12-03T06:07:20.734Z,19.73
2022-12-03T06:10:25.462Z,19.13
2022-12-03T06:13:27.864Z,18.05
2022-12-03T06:16:30.387Z,15.57
2022-12-03T06:19:34.431Z,16.90
2022-12-03T06:22:36.847Z,20.80
2022-12-03T06:25:39.361Z,21.03
2022-12-03T06:28:46.338Z,19.45
2022-12-03T06:31:48.853Z,18.48
2022-12-03T06:34:53.050Z,17.95
2022-12-03T06:37:55.796Z,18.40
2022-12-03T06:40:58.234Z,25.80
2022-12-03T06:44:00.752Z,24.17
2022-12-03T06:47:03.248Z,19.15
2022-12-03T06:50:08.905Z,16.33
2022-12-03T06:53:11.347Z,18.27
2022-12-03T06:56:13.793Z,19.70
2022-12-03T06:59:16.250Z,17.00
2022-12-03T07:02:18.886Z,26.58
2022-12-03T07:05:23.503Z,25.55
2022-12-03T07:08:26.205Z,43.13
2022-12-03T07:11:31.436Z,22.73
2022-12-03T07:14:33.998Z,26.13
2022-12-03T07:17:36.446Z,26.05
2022-12-03T07:20:40.223Z,18.50
2022-12-03T07:23:42.868Z,22.60
2022-12-03T07:26:45.416Z,20.20
2022-12-03T07:29:48.054Z,17.55
2022-12-03T07:32:50.576Z,21.15
2022-12-03T07:35:54.418Z,29.65
2022-12-03T07:39:15.605Z,26.60
2022-12-03T07:42:19.046Z,18.40
2022-12-03T07:45:21.439Z,22.38
2022-12-03T07:48:24.083Z,19.42
2022-12-03T07:51:32.130Z,18.92
2022-12-03T07:54:35.219Z,18.83
2022-12-03T07:57:37.838Z,21.07
2022-12-03T08:00:40.531Z,19.65
2022-12-03T08:03:43.121Z,26.23
2022-12-03T08:06:47.878Z,36.50
2022-12-03T08:09:50.665Z,41.85
2022-12-03T08:12:53.790Z,36.23
2022-12-03T08:16:01.156Z,25.95
2022-12-03T08:19:09.419Z,24.40
2022-12-03T08:22:14.686Z,26.02
2022-12-03T08:25:21.142Z,24.08
2022-12-03T08:28:28.140Z,23.27
2022-12-03T08:31:33.650Z,23.30
2022-12-03T08:34:40.369Z,21.77
2022-12-03T08:37:44.356Z,23.20
2022-12-03T08:40:49.289Z,21.63
2022-12-03T08:43:51.701Z,22.57
2022-12-03T08:46:59.996Z,22.30
2022-12-03T08:50:26.257Z,20.88
2022-12-03T08:53:35.354Z,21.88
2022-12-03T08:56:37.943Z,20.95
2022-12-03T08:59:45.365Z,22.10
2022-12-03T09:02:51.459Z,23.25
2022-12-03T09:05:53.961Z,23.27
2022-12-03T09:09:01.131Z,24.55
2022-12-03T09:12:06.737Z,25.85
2022-12-03T09:15:09.864Z,24.90
2022-12-03T09:18:12.404Z,24.30
2022-12-03T09:21:15.036Z,23.48
2022-12-03T09:24:19.588Z,25.75
2022-12-03T09:27:22.888Z,23.52
2022-12-03T09:30:25.500Z,28.17
2022-12-03T09:33:28.067Z,28.60
2022-12-03T09:36:30.689Z,27.40
2022-12-03T09:39:34.798Z,27.35
2022-12-03T09:42:58.576Z,28.00
2022-12-03T09:46:01.409Z,25.67
2022-12-03T09:49:12.232Z,27.08
2022-12-03T09:52:24.155Z,28.88
2022-12-03T09:55:29.987Z,26.80
2022-12-03T09:58:34.937Z,27.58
2022-12-03T10:01:39.067Z,30.33
2022-12-03T10:04:41.657Z,28.75
2022-12-03T10:07:44.375Z,29.90
2022-12-03T10:10:50.486Z,35.17
2022-12-03T10:13:56.019Z,30.38
2022-12-03T10:17:00.126Z,31.80
2022-12-03T10:20:02.757Z,31.98
2022-12-03T10:23:05.675Z,31.25
2022-12-03T10:26:09.611Z,32.28
2022-12-03T10:29:13.374Z,32.10
2022-12-03T10:32:15.843Z,34.10
2022-12-03T10:35:20.721Z,30.77
2022-12-03T10:38:23.580Z,32.97
2022-12-03T10:41:28.847Z,31.95
2022-12-03T10:44:31.283Z,30.88
2022-12-03T10:47:33.878Z,30.53
2022-12-03T10:50:37.212Z,32.35
2022-12-03T10:53:40.817Z,30.55
2022-12-03T10:56:46.156Z,30.42
2022-12-03T10:59:49.466Z,32.00
2022-12-03T11:03:18.138Z,33.47
2022-12-03T11:06:22.584Z,30.80
2022-12-03T11:09:28.509Z,31.92
2022-12-03T11:12:34.674Z,32.67
2022-12-03T11:15:45.122Z,31.48
2022-12-03T11:19:02.257Z,31.27
2022-12-03T11:22:23.929Z,31.48
2022-12-03T11:25:49.557Z,29.23
2022-12-03T11:28:56.085Z,28.63
2022-12-03T11:31:59.327Z,31.88
2022-12-03T11:35:01.747Z,29.30
2022-12-03T11:38:50.717Z,31.20
2022-12-03T11:42:29.506Z,28.35
2022-12-03T11:45:35.953Z,27.50
2022-12-03T11:48:44.155Z,27.15
2022-12-03T11:51:47.108Z,27.03
2022-12-03T11:54:53.865Z,26.70
2022-12-03T11:58:01.965Z,28.13
2022-12-03T12:01:08.000Z,27.95
2022-12-03T12:04:28.198Z,27.13
2022-12-03T12:07:50.270Z,27.43
2022-12-03T12:10:52.822Z,26.70
2022-12-03T12:13:57.167Z,27.75
2022-12-03T12:17:03.284Z,29.90
2022-12-03T12:20:23.523Z,29.30
2022-12-03T12:23:29.089Z,31.67
2022-12-03T12:26:31.526Z,30.25
2022-12-03T12:29:34.715Z,28.48
2022-12-03T12:32:45.935Z,29.55
2022-12-03T12:35:48.809Z,30.25
2022-12-03T12:38:51.264Z,28.93
2022-12-03T12:41:55.373Z,28.65
2022-12-03T12:45:01.231Z,28.63
2022-12-03T12:48:15.688Z,27.70
2022-12-03T12:51:18.844Z,29.30
2022-12-03T12:54:21.459Z,28.53
2022-12-03T12:57:24.299Z,30.73
2022-12-03T13:00:26.824Z,30.63
2022-12-03T13:03:34.034Z,30.42
2022-12-03T13:06:36.530Z,32.10
2022-12-03T13:09:39.550Z,29.93
2022-12-03T13:12:42.156Z,28.45
2022-12-03T13:15:50.510Z,29.90
2022-12-03T13:18:55.565Z,28.73
2022-12-03T13:22:01.760Z,27.50
2022-12-03T13:25:58.150Z,27.00
2022-12-03T13:28:57.753Z,27.80
2022-12-03T13:32:10.111Z,26.60
2022-12-03T13:35:25.386Z,26.88
2022-12-03T13:38:28.052Z,26.40
2022-12-03T13:41:49.173Z,26.90
2022-12-03T13:44:53.233Z,26.80
2022-12-03T13:47:58.565Z,26.30
2022-12-03T13:51:26.207Z,26.83
2022-12-03T13:54:31.282Z,29.08
2022-12-03T13:57:33.711Z,30.07
2022-12-03T14:00:36.250Z,27.35
2022-12-03T14:03:38.817Z,26.42
2022-12-03T14:06:42.746Z,27.63
2022-12-03T14:09:45.256Z,37.47
2022-12-03T14:12:47.669Z,37.77
2022-12-03T14:15:50.193Z,33.10
2022-12-03T14:18:52.842Z,29.27
2022-12-03T14:21:56.775Z,28.70
2022-12-03T14:24:59.273Z,36.40
2022-12-03T14:28:01.926Z,27.40
2022-12-03T14:31:06.011Z,27.33
2022-12-03T14:34:08.888Z,28.52
2022-12-03T14:37:12.863Z,33.33
2022-12-03T14:40:20.972Z,34.38
2022-12-03T14:43:24.156Z,39.13
2022-12-03T14:46:26.858Z,40.78
2022-12-03T14:49:44.894Z,33.20
2022-12-03T14:52:49.117Z,29.48
2022-12-03T14:55:51.552Z,29.42
2022-12-03T14:58:54.202Z,40.37
2022-12-03T15:01:56.989Z,39.92
2022-12-03T15:04:59.599Z,38.75
2022-12-03T15:08:03.532Z,35.58
2022-12-03T15:11:06.494Z,31.48
2022-12-03T15:14:08.991Z,32.27
2022-12-03T15:17:11.545Z,28.73
2022-12-03T15:20:14.440Z,28.40
2022-12-03T15:23:18.508Z,29.45
2022-12-03T15:26:21.217Z,31.15
2022-12-03T15:29:23.772Z,31.23
2022-12-03T15:32:26.336Z,29.75
2022-12-03T15:35:28.901Z,30.80
2022-12-03T15:38:34.526Z,31.42
2022-12-03T15:41:37.469Z,32.50
2022-12-03T15:44:40.043Z,33.50
2022-12-03T15:47:42.557Z,32.70
2022-12-03T15:50:45.263Z,31.70
2022-12-03T15:53:49.175Z,33.60
2022-12-03T15:56:57.002Z,33.55
2022-12-03T16:00:00.321Z,50.63
2022-12-03T16:03:02.941Z,53.42
2022-12-03T16:06:06.001Z,70.10
2022-12-03T16:09:10.195Z,96.45
2022-12-03T16:12:12.618Z,95.13
2022-12-03T16:15:16.496Z,105.27
2022-12-03T16:18:19.005Z,99.28
2022-12-03T16:21:26.423Z,68.65
2022-12-03T16:24:31.019Z,81.97
2022-12-03T16:27:33.527Z,92.53
2022-12-03T16:30:37.097Z,75.73
2022-12-03T16:33:39.619Z,70.45
2022-12-03T16:36:42.132Z,73.35
2022-12-03T16:39:46.352Z,71.28
2022-12-03T16:42:48.747Z,47.17
2022-12-03T16:46:02.127Z,55.87
2022-12-03T16:49:06.217Z,45.05
2022-12-03T16:52:08.722Z,48.08
2022-12-03T16:55:13.333Z,44.70
2022-12-03T16:58:18.645Z,41.15
2022-12-03T17:01:23.446Z,39.80
2022-12-03T17:04:29.047Z,42.95
2022-12-03T17:07:31.515Z,46.47
2022-12-03T17:10:35.554Z,53.45
2022-12-03T17:13:38.003Z,58.10
2022-12-03T17:16:40.416Z,52.47
2022-12-03T17:19:42.947Z,48.78
2022-12-03T17:22:46.462Z,47.75
2022-12-03T17:25:50.381Z,42.58
2022-12-03T17:28:53.058Z,49.72
2022-12-03T17:31:55.574Z,51.73
2022-12-03T17:34:58.228Z,53.00
2022-12-03T17:38:02.510Z,51.83
2022-12-03T17:41:07.474Z,49.03
2022-12-03T17:44:12.084Z,43.05
2022-12-03T17:47:16.700Z,33.83
2022-12-03T17:50:19.369Z,34.35
2022-12-03T17:53:21.991Z,38.08
2022-12-03T17:56:26.292Z,32.95
2022-12-03T17:59:28.922Z,30.17
2022-12-03T18:02:31.547Z,29.30
2022-12-03T18:05:34.097Z,35.50
2022-12-03T18:08:36.506Z,28.38
2022-12-03T18:11:40.539Z,29.38
2022-12-03T18:14:43.067Z,31.98
2022-12-03T18:17:45.707Z,31.83
2022-12-03T18:20:48.403Z,32.33
2022-12-03T18:23:51.022Z,29.08
2022-12-03T18:26:56.179Z,31.95
2022-12-03T18:29:58.885Z,33.05
2022-12-03T18:33:01.364Z,34.07
2022-12-03T18:36:04.937Z,29.20
2022-12-03T18:39:12.273Z,30.42
2022-12-03T18:42:17.961Z,30.50
2022-12-03T18:45:20.780Z,32.40
2022-12-03T18:48:23.673Z,31.40
2022-12-03T18:51:28.653Z,31.98
2022-12-03T18:54:31.238Z,32.60
2022-12-03T18:57:35.196Z,37.25
2022-12-03T19:00:39.725Z,36.30
2022-12-03T19:03:42.236Z,36.87
2022-12-03T19:06:44.856Z,40.75
2022-12-03T19:09:48.687Z,46.15
2022-12-03T19:12:53.579Z,48.88
2022-12-03T19:15:56.385Z,44.22
2022-12-03T19:18:59.837Z,43.90
2022-12-03T19:22:03.635Z,42.92
2022-12-03T19:25:06.562Z,40.40
2022-12-03T19:28:10.335Z,39.72
2022-12-03T19:31:16.350Z,42.13
2022-12-03T19:34:19.583Z,41.57
2022-12-03T19:37:22.233Z,45.58
2022-12-03T19:40:24.873Z,44.72
2022-12-03T19:43:29.165Z,44.15
2022-12-03T19:46:31.957Z,46.00
2022-12-03T19:49:34.710Z,41.73
2022-12-03T19:52:38.339Z,36.08
2022-12-03T19:55:41.000Z,35.83
2022-12-03T19:58:46.783Z,34.75
2022-12-03T20:01:49.627Z,34.45
2022-12-03T20:04:52.307Z,35.17
2022-12-03T20:07:55.009Z,36.33
2022-12-03T20:11:07.394Z,34.40
2022-12-03T20:14:14.731Z,35.47
2022-12-03T20:17:17.472Z,37.17
2022-12-03T20:20:20.526Z,37.17
2022-12-03T20:23:23.307Z,36.78
2022-12-03T20:26:26.574Z,36.53
2022-12-03T20:29:30.896Z,37.00
2022-12-03T20:32:34.994Z,37.25
2022-12-03T20:35:37.961Z,39.00
2022-12-03T20:38:40.859Z,39.03
2022-12-03T20:41:44.895Z,37.90
2022-12-03T20:44:51.173Z,36.15
2022-12-03T20:47:53.870Z,38.03
2022-12-03T20:50:56.540Z,36.73
2022-12-03T20:54:00.174Z,36.47
2022-12-03T20:57:03.065Z,38.30
2022-12-03T21:00:08.404Z,37.50
2022-12-03T21:03:11.027Z,37.22
2022-12-03T21:06:14.601Z,39.07
2022-12-03T21:09:17.349Z,40.35
2022-12-03T21:12:21.095Z,42.08
2022-12-03T21:15:25.458Z,39.30
2022-12-03T21:18:28.179Z,38.40
2022-12-03T21:21:31.626Z,38.30
2022-12-03T21:24:34.462Z,38.92
2022-12-03T21:27:55.556Z,38.28
2022-12-03T21:31:04.512Z,37.53
2022-12-03T21:34:08.532Z,39.92
2022-12-03T21:37:11.267Z,37.17
2022-12-03T21:40:14.038Z,36.97
2022-12-03T21:43:16.519Z,37.05
2022-12-03T21:47:09.315Z,37.80
2022-12-03T21:49:44.083Z,37.78
2022-12-03T21:52:46.561Z,37.27
2022-12-03T21:55:49.159Z,38.95
2022-12-03T21:58:52.320Z,38.58
2022-12-03T22:01:56.466Z,37.17
2022-12-03T22:04:59.155Z,37.28
2022-12-03T22:08:01.699Z,37.33
2022-12-03T22:11:05.697Z,37.28
2022-12-03T22:14:09.835Z,36.63
2022-12-03T22:17:14.660Z,38.80
2022-12-03T22:20:17.202Z,39.28
2022-12-03T22:23:19.622Z,38.37
2022-12-03T22:26:22.458Z,37.08
2022-12-03T22:29:24.987Z,37.03
2022-12-03T22:32:28.876Z,36.00
2022-12-03T22:35:33.104Z,39.20
2022-12-03T22:38:35.614Z,41.10
2022-12-03T22:41:38.164Z,41.88
2022-12-03T22:44:40.667Z,39.40
2022-12-03T22:47:44.483Z,40.33
2022-12-03T22:50:48.129Z,37.80
2022-12-03T22:53:54.757Z,37.17
2022-12-03T22:56:57.321Z,38.28
2022-12-03T22:59:59.916Z,38.38
2022-12-03T23:03:04.770Z,39.50
2022-12-03T23:06:11.104Z,37.10
2022-12-03T23:09:13.830Z,36.87
2022-12-03T23:12:16.299Z,37.75
2022-12-03T23:15:18.751Z,38.20
2022-12-03T23:18:22.594Z,39.58
2022-12-03T23:21:29.886Z,37.97
2022-12-03T23:24:33.116Z,42.10
2022-12-03T23:27:35.686Z,45.03
2022-12-03T23:30:39.262Z,42.28
2022-12-03T23:33:43.048Z,39.53
2022-12-03T23:36:45.472Z,39.20
2022-12-03T23:39:48.214Z,40.27
2022-12-03T23:42:50.670Z,38.20
2022-12-03T23:45:53.083Z,36.75
2022-12-03T23:48:58.782Z,35.72
2022-12-03T23:52:01.268Z,34.90
2022-12-03T23:55:04.202Z,34.53
2022-12-03T23:58:07.702Z,35.60
